createdAt,value
2017-07-05T00:01:49.588Z,9.67
2017-07-05T00:04:16.996Z,12.00
2017-07-05T00:06:44.417Z,11.60
2017-07-05T00:09:11.859Z,8.50
2017-07-05T00:11:39.260Z,8.50
2017-07-05T00:14:06.668Z,8.30
2017-07-05T00:16:34.091Z,9.77
2017-07-05T00:19:01.540Z,7.47
2017-07-05T00:21:28.993Z,9.97
2017-07-05T00:23:56.473Z,9.47
2017-07-05T00:26:23.998Z,8.37
2017-07-05T00:28:52.036Z,8.27
2017-07-05T00:31:19.480Z,8.37
2017-07-05T00:33:46.918Z,9.17
2017-07-05T00:36:14.340Z,7.80
2017-07-05T00:38:41.757Z,11.23
2017-07-05T00:41:09.227Z,8.47
2017-07-05T00:43:36.642Z,8.73
2017-07-05T00:46:04.085Z,9.67
2017-07-05T00:48:31.488Z,8.30
2017-07-05T00:50:58.914Z,10.87
2017-07-05T00:53:26.331Z,8.57
2017-07-05T00:55:53.814Z,11.20
2017-07-05T00:58:21.252Z,9.00
2017-07-05T01:00:48.686Z,9.90
2017-07-05T01:03:16.127Z,7.90
2017-07-05T01:05:43.582Z,9.40
2017-07-05T01:08:11.023Z,9.80
2017-07-05T01:10:38.428Z,10.13
2017-07-05T01:13:05.861Z,9.33
2017-07-05T01:15:33.306Z,8.93
2017-07-05T01:18:00.735Z,8.60
2017-07-05T01:20:28.167Z,8.40
2017-07-05T01:22:55.580Z,8.40
2017-07-05T01:25:22.999Z,9.50
2017-07-05T01:27:50.461Z,8.60
2017-07-05T01:30:17.866Z,10.77
2017-07-05T01:32:45.280Z,9.40
2017-07-05T01:35:12.705Z,8.87
2017-07-05T01:37:40.156Z,8.67
2017-07-05T01:40:07.604Z,9.77
2017-07-05T01:42:35.869Z,9.20
2017-07-05T01:45:03.327Z,11.80
2017-07-05T01:47:30.769Z,10.90
2017-07-05T01:49:58.194Z,10.77
2017-07-05T01:52:25.648Z,9.00
2017-07-05T01:54:53.108Z,12.70
2017-07-05T01:57:20.517Z,11.50
2017-07-05T01:59:47.949Z,11.20
2017-07-05T02:02:15.392Z,9.30
2017-07-05T02:04:42.879Z,13.67
2017-07-05T02:07:10.242Z,9.97
2017-07-05T02:09:37.692Z,10.37
2017-07-05T02:12:05.135Z,9.80
2017-07-05T02:14:32.545Z,9.60
2017-07-05T02:16:59.984Z,10.00
2017-07-05T02:19:27.497Z,11.00
2017-07-05T02:21:54.974Z,11.03
2017-07-05T02:24:22.415Z,11.10
2017-07-05T02:26:49.896Z,12.20
2017-07-05T02:29:17.356Z,13.40
2017-07-05T02:31:44.775Z,15.70
2017-07-05T02:34:12.281Z,12.70
2017-07-05T02:36:39.711Z,9.93
2017-07-05T02:39:07.163Z,12.13
2017-07-05T02:41:34.577Z,14.10
2017-07-05T02:44:01.995Z,10.53
2017-07-05T02:46:29.431Z,10.70
2017-07-05T02:48:56.856Z,10.93
2017-07-05T02:51:24.268Z,11.10
2017-07-05T02:53:51.754Z,13.23
2017-07-05T02:56:19.172Z,11.43
2017-07-05T02:58:46.609Z,13.87
2017-07-05T03:01:14.036Z,13.53
2017-07-05T03:03:41.463Z,11.27
2017-07-05T03:06:08.928Z,12.23
2017-07-05T03:08:36.345Z,11.97
2017-07-05T03:11:03.788Z,12.20
2017-07-05T03:13:31.229Z,10.87
2017-07-05T03:15:58.677Z,11.27
2017-07-05T03:18:26.083Z,19.47
2017-07-05T03:20:53.497Z,11.33
2017-07-05T03:23:20.931Z,11.50
2017-07-05T03:25:48.378Z,10.73
2017-07-05T03:28:15.919Z,9.67
2017-07-05T03:30:43.452Z,22.83
2017-07-05T03:33:10.864Z,10.23
2017-07-05T03:35:38.278Z,9.87
2017-07-05T03:38:05.712Z,12.10
2017-07-05T03:40:33.120Z,10.50
2017-07-05T03:43:00.603Z,14.97
2017-07-05T03:45:28.017Z,10.63
2017-07-05T03:47:55.548Z,10.30
2017-07-05T03:50:22.989Z,13.17
2017-07-05T03:52:50.466Z,15.33
2017-07-05T03:55:17.949Z,11.90
2017-07-05T03:57:45.371Z,9.90
2017-07-05T04:00:12.788Z,11.50
2017-07-05T04:02:40.222Z,16.20
2017-07-05T04:05:07.769Z,12.73
2017-07-05T04:07:35.411Z,11.60
2017-07-05T04:10:02.831Z,12.00
2017-07-05T04:12:30.285Z,13.07
2017-07-05T04:14:57.695Z,18.53
2017-07-05T04:17:25.110Z,10.60
2017-07-05T04:19:52.541Z,14.20
2017-07-05T04:22:19.963Z,13.97
2017-07-05T04:24:47.578Z,14.03
2017-07-05T04:27:15.002Z,10.37
2017-07-05T04:29:42.472Z,13.03
2017-07-05T04:32:09.925Z,12.63
2017-07-05T04:34:37.387Z,12.20
2017-07-05T04:37:04.792Z,12.67
2017-07-05T04:39:32.216Z,14.13
2017-07-05T04:41:59.701Z,13.63
2017-07-05T04:44:27.217Z,15.60
2017-07-05T04:46:54.627Z,11.53
2017-07-05T04:49:22.081Z,15.17
2017-07-05T04:51:49.532Z,12.33
2017-07-05T04:54:16.942Z,16.87
2017-07-05T04:56:44.398Z,16.30
2017-07-05T04:59:11.952Z,13.13
2017-07-05T05:01:39.465Z,14.33
2017-07-05T05:04:06.908Z,14.80
2017-07-05T05:06:34.329Z,15.40
2017-07-05T05:09:01.795Z,19.20
2017-07-05T05:11:29.206Z,14.73
2017-07-05T05:13:56.625Z,10.77
2017-07-05T05:16:24.059Z,12.60
2017-07-05T05:18:52.313Z,11.70
2017-07-05T05:21:19.718Z,11.30
2017-07-05T05:23:47.165Z,15.27
2017-07-05T05:26:14.578Z,11.70
2017-07-05T05:28:42.074Z,16.70
2017-07-05T05:31:09.528Z,12.17
2017-07-05T05:33:36.982Z,10.40
2017-07-05T05:36:04.405Z,13.47
2017-07-05T05:38:31.861Z,12.83
2017-07-05T05:40:59.293Z,12.60
2017-07-05T05:43:26.740Z,13.40
2017-07-05T05:45:54.172Z,10.57
2017-07-05T05:48:21.598Z,13.30
2017-07-05T05:50:49.156Z,10.80
2017-07-05T05:53:16.744Z,12.03
2017-07-05T05:55:44.176Z,11.23
2017-07-05T05:58:11.580Z,10.13
2017-07-05T06:00:39.006Z,9.37
2017-07-05T06:03:06.443Z,9.97
2017-07-05T06:05:33.941Z,10.37
2017-07-05T06:08:01.388Z,10.10
2017-07-05T06:10:28.795Z,9.03
2017-07-05T06:12:56.277Z,11.13
2017-07-05T06:15:23.728Z,10.63
2017-07-05T06:17:51.164Z,8.53
2017-07-05T06:20:18.598Z,9.40
2017-07-05T06:22:46.033Z,8.40
2017-07-05T06:25:13.487Z,9.13
2017-07-05T06:27:40.891Z,9.03
2017-07-05T06:30:08.337Z,12.50
2017-07-05T06:32:35.786Z,10.17
2017-07-05T06:35:03.223Z,9.10
2017-07-05T06:37:30.637Z,9.27
2017-07-05T06:39:58.048Z,8.37
2017-07-05T06:42:25.501Z,10.03
2017-07-05T06:44:52.972Z,12.97
2017-07-05T06:47:20.384Z,9.73
2017-07-05T06:49:47.812Z,8.07
2017-07-05T06:52:15.252Z,11.10
2017-07-05T06:54:42.696Z,7.50
2017-07-05T06:57:10.174Z,9.33
2017-07-05T06:59:37.599Z,8.63
2017-07-05T07:02:05.049Z,9.93
2017-07-05T07:04:32.464Z,10.27
2017-07-05T07:06:59.893Z,11.37
2017-07-05T07:09:27.340Z,7.87
2017-07-05T07:11:54.797Z,11.33
2017-07-05T07:14:22.261Z,10.03
2017-07-05T07:16:49.689Z,7.23
2017-07-05T07:19:17.113Z,11.70
2017-07-05T07:21:44.557Z,9.90
2017-07-05T07:24:11.987Z,7.87
2017-07-05T07:26:39.425Z,8.17
2017-07-05T07:29:06.845Z,8.50
2017-07-05T07:31:34.318Z,10.90
2017-07-05T07:34:01.768Z,10.10
2017-07-05T07:36:29.214Z,8.00
2017-07-05T07:38:56.669Z,9.80
2017-07-05T07:41:24.104Z,9.73
2017-07-05T07:43:51.509Z,9.20
2017-07-05T07:46:18.977Z,8.47
2017-07-05T07:48:46.402Z,10.73
2017-07-05T07:51:13.861Z,9.13
2017-07-05T07:53:41.317Z,7.50
2017-07-05T07:56:08.745Z,7.50
2017-07-05T07:58:36.207Z,10.23
2017-07-05T08:01:03.620Z,11.53
2017-07-05T08:03:31.039Z,7.57
2017-07-05T08:05:58.495Z,8.33
2017-07-05T08:08:25.897Z,9.53
2017-07-05T08:10:53.346Z,10.13
2017-07-05T08:13:20.760Z,7.83
2017-07-05T08:15:48.216Z,8.03
2017-07-05T08:18:15.672Z,10.77
2017-07-05T08:20:43.113Z,10.17
2017-07-05T08:23:10.596Z,9.70
2017-07-05T08:25:38.005Z,7.00
2017-07-05T08:28:05.460Z,8.93
2017-07-05T08:30:32.896Z,7.10
2017-07-05T08:33:00.349Z,7.33
2017-07-05T08:35:27.793Z,8.37
2017-07-05T08:37:55.228Z,8.17
2017-07-05T08:40:22.635Z,9.93
2017-07-05T08:42:50.073Z,8.67
2017-07-05T08:45:17.576Z,8.10
2017-07-05T08:47:45.014Z,6.70
2017-07-05T08:50:12.473Z,11.00
2017-07-05T08:52:40.041Z,7.33
2017-07-05T08:55:07.653Z,9.50
2017-07-05T08:57:35.206Z,6.97
2017-07-05T09:00:02.687Z,6.90
2017-07-05T09:02:30.151Z,6.50
2017-07-05T09:04:57.566Z,6.30
2017-07-05T09:07:24.975Z,7.40
2017-07-05T09:09:52.413Z,8.30
2017-07-05T09:12:19.871Z,7.60
2017-07-05T09:14:47.399Z,11.20
2017-07-05T09:17:15.165Z,6.70
2017-07-05T09:19:42.640Z,6.40
2017-07-05T09:22:10.210Z,10.27
2017-07-05T09:24:37.658Z,8.93
2017-07-05T09:27:05.093Z,8.60
2017-07-05T09:29:32.526Z,7.13
2017-07-05T09:31:59.928Z,7.00
2017-07-05T09:34:27.402Z,6.93
2017-07-05T09:36:54.831Z,7.40
2017-07-05T09:39:22.357Z,6.63
2017-07-05T09:41:49.860Z,7.33
2017-07-05T09:44:17.298Z,6.07
2017-07-05T09:46:44.732Z,9.27
2017-07-05T09:49:12.200Z,7.57
2017-07-05T09:51:39.632Z,11.73
2017-07-05T09:54:07.021Z,6.90
2017-07-05T09:56:34.465Z,7.63
2017-07-05T09:59:01.900Z,11.03
2017-07-05T10:01:29.353Z,11.63
2017-07-05T10:03:56.773Z,9.17
2017-07-05T10:06:24.219Z,7.67
2017-07-05T10:08:51.645Z,6.63
2017-07-05T10:11:19.053Z,8.30
2017-07-05T10:13:46.614Z,6.90
2017-07-05T10:16:14.160Z,9.77
2017-07-05T10:18:41.599Z,7.63
2017-07-05T10:21:09.092Z,8.97
2017-07-05T10:23:36.781Z,11.80
2017-07-05T10:26:04.229Z,7.70
2017-07-05T10:28:32.170Z,6.67
2017-07-05T10:30:59.800Z,7.17
2017-07-05T10:33:27.282Z,7.83
2017-07-05T10:35:54.782Z,6.57
2017-07-05T10:38:22.310Z,7.07
2017-07-05T10:40:49.740Z,8.53
2017-07-05T10:43:17.229Z,8.23
2017-07-05T10:45:44.653Z,7.50
2017-07-05T10:48:12.108Z,7.90
2017-07-05T10:50:39.568Z,9.13
2017-07-05T10:53:06.969Z,8.70
2017-07-05T10:55:34.497Z,7.50
2017-07-05T10:58:01.930Z,6.50
2017-07-05T11:00:29.333Z,8.80
2017-07-05T11:02:56.803Z,7.67
2017-07-05T11:05:24.315Z,6.60
2017-07-05T11:07:51.792Z,8.40
2017-07-05T11:10:19.228Z,8.37
2017-07-05T11:12:46.693Z,7.07
2017-07-05T11:15:14.095Z,8.60
2017-07-05T11:17:41.611Z,9.40
2017-07-05T11:20:09.054Z,7.37
2017-07-05T11:22:36.508Z,7.30
2017-07-05T11:25:03.972Z,6.70
2017-07-05T11:27:31.416Z,9.90
2017-07-05T11:29:58.849Z,7.07
2017-07-05T11:32:26.297Z,6.00
2017-07-05T11:34:53.720Z,7.70
2017-07-05T11:37:21.308Z,7.67
2017-07-05T11:39:48.723Z,7.03
2017-07-05T11:42:16.141Z,6.20
2017-07-05T11:44:43.588Z,7.17
2017-07-05T11:47:11.007Z,8.43
2017-07-05T11:49:38.439Z,6.80
2017-07-05T11:52:05.862Z,11.30
2017-07-05T11:54:33.289Z,7.53
2017-07-05T11:57:00.712Z,6.67
2017-07-05T11:59:28.180Z,8.80
2017-07-05T12:01:55.592Z,6.53
2017-07-05T12:04:23.013Z,6.57
2017-07-05T12:06:50.457Z,7.30
2017-07-05T12:09:17.868Z,6.90
2017-07-05T12:11:45.324Z,7.17
2017-07-05T12:14:12.738Z,8.60
2017-07-05T12:16:40.179Z,7.87
2017-07-05T12:19:07.619Z,6.63
2017-07-05T12:21:35.061Z,6.57
2017-07-05T12:24:02.474Z,8.60
2017-07-05T12:26:29.908Z,6.67
2017-07-05T12:28:57.353Z,7.00
2017-07-05T12:31:24.845Z,6.60
2017-07-05T12:33:52.254Z,6.40
2017-07-05T12:36:19.679Z,6.87
2017-07-05T12:38:47.155Z,6.37
2017-07-05T12:41:14.588Z,6.50
2017-07-05T12:43:42.048Z,6.13
2017-07-05T12:46:09.531Z,6.80
2017-07-05T12:48:37.057Z,7.93
2017-07-05T12:51:04.484Z,5.57
2017-07-05T12:53:31.997Z,5.90
2017-07-05T12:55:59.491Z,5.30
2017-07-05T12:58:26.931Z,5.37
2017-07-05T13:00:54.330Z,5.40
2017-07-05T13:03:21.755Z,5.40
2017-07-05T13:05:49.197Z,6.63
2017-07-05T13:08:16.629Z,13.60
2017-07-05T13:10:44.076Z,5.67
2017-07-05T13:13:11.493Z,5.83
2017-07-05T13:15:38.933Z,6.33
2017-07-05T13:18:06.430Z,6.40
2017-07-05T13:20:33.854Z,5.83
2017-07-05T13:23:01.353Z,9.23
2017-07-05T13:25:28.781Z,12.33
2017-07-05T13:27:56.196Z,6.10
2017-07-05T13:30:23.644Z,5.77
2017-07-05T13:32:51.072Z,9.33
2017-07-05T13:35:18.486Z,7.40
2017-07-05T13:37:45.952Z,6.27
2017-07-05T13:40:13.366Z,6.30
2017-07-05T13:42:40.805Z,6.37
2017-07-05T13:45:08.314Z,6.30
2017-07-05T13:47:35.735Z,6.83
2017-07-05T13:50:03.243Z,6.17
2017-07-05T13:57:50.076Z,6.20
2017-07-05T14:00:17.559Z,5.63
2017-07-05T14:02:44.980Z,6.57
2017-07-05T14:05:12.429Z,6.70
2017-07-05T14:07:39.976Z,6.13
2017-07-05T14:10:07.468Z,7.30
2017-07-05T14:12:34.931Z,5.67
2017-07-05T14:15:02.380Z,5.00
2017-07-05T14:17:29.870Z,6.43
2017-07-05T14:19:57.373Z,7.10
2017-07-05T14:22:24.832Z,5.30
2017-07-05T14:24:52.305Z,5.77
2017-07-05T14:27:19.774Z,7.37
2017-07-05T14:29:47.277Z,5.30
2017-07-05T14:32:15.072Z,8.93
2017-07-05T14:34:43.086Z,5.53
2017-07-05T14:37:10.619Z,6.93
2017-07-05T14:39:38.201Z,5.30
2017-07-05T14:42:05.627Z,5.80
2017-07-05T14:44:33.145Z,5.23
2017-07-05T14:47:00.665Z,4.60
2017-07-05T14:49:28.255Z,5.63
2017-07-05T14:51:55.781Z,4.60
2017-07-05T14:54:23.280Z,5.60
2017-07-05T14:56:50.752Z,7.53
2017-07-05T14:59:18.192Z,4.83
2017-07-05T15:01:45.605Z,4.03
2017-07-05T15:04:13.041Z,4.43
2017-07-05T15:06:40.479Z,3.97
2017-07-05T15:09:08.033Z,4.43
2017-07-05T15:11:36.271Z,5.33
2017-07-05T15:14:03.689Z,4.23
2017-07-05T15:16:31.140Z,3.87
2017-07-05T15:18:58.562Z,4.43
2017-07-05T15:21:25.968Z,4.60
2017-07-05T15:23:53.414Z,3.73
2017-07-05T15:26:20.932Z,7.13
2017-07-05T15:28:48.328Z,4.50
2017-07-05T15:31:15.808Z,3.93
2017-07-05T15:33:43.249Z,3.43
2017-07-05T15:36:11.316Z,7.57
2017-07-05T15:38:38.871Z,4.93
2017-07-05T15:41:07.025Z,3.67
2017-07-05T15:43:34.460Z,3.60
2017-07-05T15:46:02.945Z,3.87
2017-07-05T15:48:30.443Z,6.57
2017-07-05T15:50:57.886Z,4.97
2017-07-05T15:53:25.837Z,7.17
2017-07-05T15:55:53.344Z,6.57
2017-07-05T15:58:20.841Z,4.10
2017-07-05T16:00:48.340Z,4.00
2017-07-05T16:03:15.822Z,5.67
2017-07-05T16:05:43.249Z,6.00
2017-07-05T16:08:10.668Z,3.90
2017-07-05T16:10:38.127Z,4.67
2017-07-05T16:13:05.549Z,5.00
2017-07-05T16:15:33.146Z,4.63
2017-07-05T16:18:00.578Z,4.60
2017-07-05T16:20:28.029Z,5.03
2017-07-05T16:22:55.488Z,4.50
2017-07-05T16:25:22.993Z,3.80
2017-07-05T16:27:50.426Z,4.87
2017-07-05T16:30:17.849Z,5.50
2017-07-05T16:32:45.336Z,4.57
2017-07-05T16:35:12.880Z,6.73
2017-07-05T16:37:40.352Z,6.60
2017-07-05T16:40:07.776Z,5.60
2017-07-05T16:42:35.216Z,4.13
2017-07-05T16:45:02.650Z,4.40
2017-07-05T16:47:30.092Z,4.60
2017-07-05T16:49:57.492Z,8.77
2017-07-05T16:52:24.987Z,4.90
2017-07-05T16:54:52.568Z,4.10
2017-07-05T16:57:20.072Z,4.90
2017-07-05T16:59:47.500Z,4.10
2017-07-05T17:02:14.964Z,4.23
2017-07-05T17:04:43.005Z,4.23
2017-07-05T17:07:10.438Z,5.37
2017-07-05T17:09:37.864Z,4.93
2017-07-05T17:12:05.333Z,5.43
2017-07-05T17:14:32.779Z,4.57
2017-07-05T17:17:00.189Z,5.70
2017-07-05T17:19:27.656Z,4.60
2017-07-05T17:21:55.117Z,6.67
2017-07-05T17:24:22.517Z,5.93
2017-07-05T17:26:50.033Z,7.40
2017-07-05T17:29:17.508Z,4.70
2017-07-05T17:31:44.952Z,4.60
2017-07-05T17:34:12.841Z,4.90
2017-07-05T17:36:40.281Z,4.97
2017-07-05T17:39:07.733Z,4.83
2017-07-05T17:41:35.186Z,7.73
2017-07-05T17:44:02.635Z,5.80
2017-07-05T17:46:30.059Z,5.50
2017-07-05T17:48:57.475Z,4.50
2017-07-05T17:51:24.915Z,7.43
2017-07-05T17:53:52.328Z,9.70
2017-07-05T17:56:19.762Z,7.30
2017-07-05T17:58:47.225Z,4.93
2017-07-05T18:01:14.648Z,4.77
2017-07-05T18:03:42.118Z,23.07
2017-07-05T18:06:09.528Z,7.57
2017-07-05T18:08:36.966Z,6.97
2017-07-05T18:11:04.401Z,6.13
2017-07-05T18:13:31.861Z,4.80
2017-07-05T18:15:59.314Z,5.70
2017-07-05T18:18:26.727Z,6.07
2017-07-05T18:20:54.254Z,9.60
2017-07-05T18:23:21.706Z,5.50
2017-07-05T18:25:49.140Z,5.63
2017-07-05T18:28:16.564Z,5.03
2017-07-05T18:30:44.013Z,4.80
2017-07-05T18:33:11.440Z,4.43
2017-07-05T18:35:38.893Z,4.97
2017-07-05T18:38:06.340Z,5.90
2017-07-05T18:40:33.752Z,5.27
2017-07-05T18:43:01.214Z,5.23
2017-07-05T18:45:28.672Z,6.00
2017-07-05T18:47:56.069Z,7.13
2017-07-05T18:50:23.544Z,7.57
2017-07-05T18:52:50.981Z,7.03
2017-07-05T18:55:18.461Z,5.10
2017-07-05T18:57:45.945Z,4.90
2017-07-05T19:00:13.355Z,5.80
2017-07-05T19:02:40.819Z,6.20
2017-07-05T19:05:08.253Z,5.10
2017-07-05T19:07:35.732Z,6.43
2017-07-05T19:10:03.249Z,7.70
2017-07-05T19:12:30.665Z,6.20
2017-07-05T19:14:58.098Z,8.33
2017-07-05T19:17:25.537Z,5.10
2017-07-05T19:19:53.007Z,10.47
2017-07-05T19:22:20.424Z,7.70
2017-07-05T19:24:47.855Z,5.40
2017-07-05T19:27:15.259Z,5.60
2017-07-05T19:29:42.734Z,5.63
2017-07-05T19:32:10.301Z,6.53
2017-07-05T19:34:37.760Z,8.73
2017-07-05T19:37:05.240Z,8.70
2017-07-05T19:39:32.932Z,6.00
2017-07-05T19:42:00.364Z,9.97
2017-07-05T19:44:27.813Z,10.50
2017-07-05T19:46:55.293Z,5.97
2017-07-05T19:49:22.778Z,11.63
2017-07-05T19:51:50.234Z,10.60
2017-07-05T19:54:17.719Z,8.00
2017-07-05T19:56:45.280Z,9.57
2017-07-05T19:59:12.727Z,7.93
2017-07-05T20:01:40.181Z,6.93
2017-07-05T20:04:07.670Z,8.03
2017-07-05T20:06:35.139Z,8.37
2017-07-05T20:09:02.568Z,8.57
2017-07-05T20:11:29.993Z,10.67
2017-07-05T20:13:57.489Z,8.27
2017-07-05T20:16:24.913Z,6.70
2017-07-05T20:18:52.445Z,8.00
2017-07-05T20:21:19.869Z,9.90
2017-07-05T20:23:47.428Z,11.87
2017-07-05T20:26:14.896Z,9.83
2017-07-05T20:28:42.356Z,9.23
2017-07-05T20:31:09.794Z,9.00
2017-07-05T20:33:37.254Z,10.20
2017-07-05T20:36:04.748Z,7.00
2017-07-05T20:38:32.303Z,9.40
2017-07-05T20:40:59.754Z,9.03
2017-07-05T20:43:27.269Z,14.40
2017-07-05T20:45:54.708Z,10.13
2017-07-05T20:48:22.149Z,10.73
2017-07-05T20:50:49.569Z,7.37
2017-07-05T20:53:17.197Z,9.23
2017-07-05T20:55:44.657Z,7.53
2017-07-05T20:58:12.082Z,10.67
2017-07-05T21:00:39.723Z,8.63
2017-07-05T21:03:07.095Z,8.73
2017-07-05T21:05:34.532Z,11.60
2017-07-05T21:08:01.980Z,8.03
2017-07-05T21:10:29.389Z,7.93
2017-07-05T21:12:56.870Z,8.13
2017-07-05T21:15:24.295Z,8.97
2017-07-05T21:17:51.701Z,9.17
2017-07-05T21:20:19.214Z,11.10
2017-07-05T21:22:46.630Z,8.67
2017-07-05T21:25:14.071Z,10.40
2017-07-05T21:27:41.507Z,7.30
2017-07-05T21:30:08.977Z,7.47
2017-07-05T21:32:36.389Z,7.13
2017-07-05T21:35:03.816Z,8.07
2017-07-05T21:37:31.313Z,8.00
2017-07-05T21:39:58.723Z,9.13
2017-07-05T21:42:26.168Z,8.43
2017-07-05T21:44:53.589Z,7.87
2017-07-05T21:47:20.987Z,8.20
2017-07-05T21:49:48.433Z,8.70
2017-07-05T21:52:15.877Z,8.37
2017-07-05T21:54:43.325Z,9.93
2017-07-05T21:57:10.782Z,9.23
2017-07-05T21:59:38.183Z,9.63
2017-07-05T22:02:05.595Z,6.40
2017-07-05T22:04:33.060Z,13.43
2017-07-05T22:07:00.516Z,9.77
2017-07-05T22:09:27.915Z,8.00
2017-07-05T22:11:55.465Z,8.13
2017-07-05T22:14:22.937Z,6.73
2017-07-05T22:16:50.388Z,7.90
2017-07-05T22:19:17.841Z,8.13
2017-07-05T22:21:45.272Z,9.37
2017-07-05T22:24:12.729Z,6.57
2017-07-05T22:26:40.149Z,7.70
2017-07-05T22:29:07.570Z,8.23
2017-07-05T22:31:35.021Z,7.03
2017-07-05T22:34:02.462Z,7.50
2017-07-05T22:36:29.982Z,9.33
2017-07-05T22:38:57.461Z,6.50
2017-07-05T22:41:24.929Z,6.63
2017-07-05T22:43:52.351Z,9.60
2017-07-05T22:46:19.776Z,7.80
2017-07-05T22:48:47.185Z,7.10
2017-07-05T22:51:14.641Z,10.00
2017-07-05T22:53:42.073Z,7.10
2017-07-05T22:56:09.628Z,7.50
2017-07-05T22:58:37.042Z,11.03
2017-07-05T23:01:04.456Z,6.90
2017-07-05T23:03:31.894Z,8.73
2017-07-05T23:05:59.301Z,7.03
2017-07-05T23:08:26.753Z,8.63
2017-07-05T23:10:54.208Z,7.80
2017-07-05T23:13:21.761Z,8.57
2017-07-05T23:15:49.160Z,10.20
2017-07-05T23:18:16.575Z,7.20
2017-07-05T23:20:44.041Z,7.70
2017-07-05T23:23:11.488Z,11.20
2017-07-05T23:25:38.893Z,7.87
2017-07-05T23:28:06.394Z,8.73
2017-07-05T23:30:33.824Z,8.27
2017-07-05T23:33:01.269Z,8.80
2017-07-05T23:35:28.682Z,7.57
2017-07-05T23:37:56.107Z,7.80
2017-07-05T23:40:23.549Z,7.63
2017-07-05T23:42:50.960Z,7.03
2017-07-05T23:45:18.425Z,8.57
2017-07-05T23:47:45.944Z,7.50
2017-07-05T23:50:13.377Z,8.50
2017-07-05T23:52:40.855Z,10.73
2017-07-05T23:55:08.262Z,9.53
2017-07-05T23:57:35.672Z,8.33
